Time;durP1;ratioP1;P1;durP2;ratioP2;P2;SDS_P1;SDS_P2;PMS_P1;PMS_P2;Temp;Humidity;BMP_temperature;BMP_pressure;BME280_temperature;BME280_humidity;BME280_pressure;Samples;Min_cycle;Max_cycle;Signal;HPM_P1;HPM_P2
2022/05/09 00:00:14;;;;;;;;;;;10.50;97.10;;;;;;5063747;28;20208;-68
2022/05/09 00:02:41;;;;;;;;;;;10.40;97.60;;;;;;5058942;28;19928;-68
2022/05/09 00:05:09;;;;;;;;;;;10.40;98.40;;;;;;5065970;28;19943;-69
2022/05/09 00:07:37;;;;;;;;;;;10.30;99.10;;;;;;5067824;28;19931;-69
2022/05/09 00:10:03;;;;;;;;;;;10.30;99.60;;;;;;5052460;28;19933;-68
2022/05/09 00:12:32;;;;;;;;;;;10.20;99.90;;;;;;5065255;28;20395;-69
2022/05/09 00:14:58;;;;;;;;;;;10.20;99.90;;;;;;5067171;28;19933;-68
2022/05/09 00:17:25;;;;;;;;;;;10.10;99.90;;;;;;5052259;28;20302;-68
2022/05/09 00:19:52;;;;;;;;;;;10.10;99.90;;;;;;5063438;28;19924;-69
2022/05/09 00:22:18;;;;;;;;;;;10.10;99.90;;;;;;5064379;28;19924;-68
2022/05/09 00:24:46;;;;;;;;;;;10.00;99.90;;;;;;5063419;28;19928;-69
2022/05/09 00:27:13;;;;;;;;;;;10.00;99.90;;;;;;5066457;28;19935;-68
2022/05/09 00:29:39;;;;;;;;;;;9.90;99.90;;;;;;5070660;28;20008;-68
2022/05/09 00:32:06;;;;;;;;;;;9.90;99.90;;;;;;5068273;28;19939;-68
2022/05/09 00:34:37;;;;;;;;;;;9.90;99.90;;;;;;5069937;28;19928;-68
2022/05/09 00:37:04;;;;;;;;;;;9.90;99.90;;;;;;5068145;28;20011;-68
2022/05/09 00:39:30;;;;;;;;;;;9.90;99.90;;;;;;5069926;28;19924;-68
2022/05/09 00:42:07;;;;;;;;;;;9.80;99.90;;;;;;5056343;28;20306;-68
2022/05/09 00:44:34;;;;;;;;;;;9.80;99.90;;;;;;5064138;28;19924;-68
2022/05/09 00:47:01;;;;;;;;;;;9.80;99.90;;;;;;5068122;28;19933;-69
2022/05/09 00:49:29;;;;;;;;;;;9.70;99.90;;;;;;5056868;28;19925;-69
2022/05/09 00:51:58;;;;;;;;;;;9.60;99.90;;;;;;5060843;28;20162;-69
2022/05/09 00:54:26;;;;;;;;;;;9.60;99.90;;;;;;5062345;28;19964;-69
2022/05/09 00:56:56;;;;;;;;;;;9.50;99.90;;;;;;5058585;28;19968;-68
2022/05/09 00:59:25;;;;;;;;;;;9.40;99.90;;;;;;5054083;28;19937;-68
2022/05/09 01:01:51;;;;;;;;;;;9.50;99.90;;;;;;5060488;28;19931;-68
2022/05/09 01:04:21;;;;;;;;;;;9.40;99.90;;;;;;5061052;28;19925;-69
2022/05/09 01:06:48;;;;;;;;;;;9.40;99.90;;;;;;5063638;28;20268;-68
2022/05/09 01:09:15;;;;;;;;;;;9.40;99.90;;;;;;5069734;28;20383;-69
2022/05/09 01:11:43;;;;;;;;;;;9.40;99.90;;;;;;5062127;28;20023;-68
2022/05/09 01:14:13;;;;;;;;;;;9.40;99.90;;;;;;5066974;28;19924;-68
2022/05/09 01:16:41;;;;;;;;;;;9.30;99.90;;;;;;5057958;28;20368;-69
2022/05/09 01:19:15;;;;;;;;;;;9.20;99.90;;;;;;5064421;28;19982;-69
2022/05/09 01:21:43;;;;;;;;;;;9.20;99.90;;;;;;5066239;28;19930;-69
2022/05/09 01:24:14;;;;;;;;;;;9.10;99.90;;;;;;5067026;28;19924;-70
2022/05/09 01:26:41;;;;;;;;;;;9.10;99.90;;;;;;5063702;28;19924;-69
2022/05/09 01:29:11;;;;;;;;;;;9.10;99.90;;;;;;5063678;28;19931;-69
2022/05/09 01:31:37;;;;;;;;;;;9.00;99.90;;;;;;5064325;28;19924;-69
2022/05/09 01:34:04;;;;;;;;;;;9.10;99.90;;;;;;5055916;28;19935;-70
2022/05/09 01:36:32;;;;;;;;;;;9.10;99.90;;;;;;5065779;28;19924;-69
2022/05/09 01:39:00;;;;;;;;;;;9.10;99.90;;;;;;5067711;28;19983;-69
2022/05/09 01:41:28;;;;;;;;;;;9.20;99.90;;;;;;5063335;28;19924;-69
2022/05/09 01:43:56;;;;;;;;;;;9.00;99.90;;;;;;5055959;28;19991;-69
2022/05/09 01:46:24;;;;;;;;;;;9.00;99.90;;;;;;5053777;28;20415;-69
2022/05/09 01:51:35;;;;;;;;;;;8.90;99.90;;;;;;5072916;28;20009;-69
2022/05/09 01:54:03;;;;;;;;;;;8.90;99.90;;;;;;5067512;28;19932;-68
2022/05/09 01:56:31;;;;;;;;;;;8.80;99.90;;;;;;5067636;28;19925;-68
2022/05/09 01:58:58;;;;;;;;;;;8.70;99.90;;;;;;5069447;28;19924;-70
2022/05/09 02:01:26;;;;;;;;;;;8.70;99.90;;;;;;5070660;28;19925;-69
2022/05/09 02:03:54;;;;;;;;;;;8.70;99.90;;;;;;5059969;28;19932;-69
2022/05/09 02:06:21;;;;;;;;;;;8.70;99.90;;;;;;5058760;28;19932;-69
2022/05/09 02:08:48;;;;;;;;;;;8.60;99.90;;;;;;5065636;28;19924;-69
2022/05/09 02:11:16;;;;;;;;;;;8.60;99.90;;;;;;5064847;28;19925;-68
2022/05/09 02:13:43;;;;;;;;;;;8.60;99.90;;;;;;5061581;28;19932;-69
2022/05/09 02:16:10;;;;;;;;;;;8.60;99.90;;;;;;5064828;28;20391;-69
2022/05/09 02:18:37;;;;;;;;;;;8.50;99.90;;;;;;5060043;28;20407;-69
2022/05/09 02:21:04;;;;;;;;;;;8.40;99.90;;;;;;5060368;28;19924;-69
2022/05/09 02:23:31;;;;;;;;;;;8.40;99.90;;;;;;5066726;28;19931;-69
2022/05/09 02:25:58;;;;;;;;;;;8.50;99.90;;;;;;5067557;28;20376;-69
2022/05/09 02:28:26;;;;;;;;;;;8.50;99.90;;;;;;5067123;28;20344;-69
2022/05/09 02:30:52;;;;;;;;;;;8.40;99.90;;;;;;5065992;28;20044;-69
2022/05/09 02:33:19;;;;;;;;;;;8.30;99.90;;;;;;5060495;28;19931;-69
2022/05/09 02:35:46;;;;;;;;;;;8.30;99.90;;;;;;5069982;28;19931;-70
2022/05/09 02:38:12;;;;;;;;;;;8.20;99.90;;;;;;5064848;28;19933;-69
2022/05/09 02:40:40;;;;;;;;;;;8.20;99.90;;;;;;5068935;28;20366;-70
2022/05/09 02:43:06;;;;;;;;;;;8.20;99.90;;;;;;5060328;28;20418;-70
2022/05/09 02:45:35;;;;;;;;;;;8.10;99.90;;;;;;5053970;28;20011;-70
2022/05/09 02:48:02;;;;;;;;;;;8.20;99.90;;;;;;5067044;28;20354;-70
2022/05/09 02:50:29;;;;;;;;;;;8.10;99.90;;;;;;5069580;28;19924;-69
2022/05/09 02:52:56;;;;;;;;;;;8.10;99.90;;;;;;5056924;28;19929;-70
2022/05/09 02:55:23;;;;;;;;;;;8.10;99.90;;;;;;5060927;28;20265;-70
2022/05/09 02:57:50;;;;;;;;;;;8.10;99.90;;;;;;5058994;28;20383;-69
2022/05/09 03:00:19;;;;;;;;;;;8.10;99.90;;;;;;5065055;28;19930;-69
2022/05/09 03:04:38;;;;;;;;;;;8.10;99.90;;;;;;5066201;28;19928;-69
2022/05/09 03:05:33;;;;;;;;;;;8.10;99.90;;;;;;5054999;28;19933;-69
2022/05/09 03:07:59;;;;;;;;;;;8.00;99.90;;;;;;5060868;28;19924;-70
2022/05/09 03:10:28;;;;;;;;;;;8.00;99.90;;;;;;5064545;28;19925;-69
2022/05/09 03:12:59;;;;;;;;;;;8.00;99.90;;;;;;5067693;28;19928;-68
2022/05/09 03:15:25;;;;;;;;;;;8.10;99.90;;;;;;5056185;28;19971;-70
2022/05/09 03:17:53;;;;;;;;;;;8.10;99.90;;;;;;5061184;28;19925;-69
2022/05/09 03:20:21;;;;;;;;;;;8.10;99.90;;;;;;5069613;28;19931;-70
2022/05/09 03:22:48;;;;;;;;;;;8.00;99.90;;;;;;5065047;28;19924;-70
2022/05/09 03:25:14;;;;;;;;;;;7.90;99.90;;;;;;5062340;28;19924;-69
2022/05/09 03:27:41;;;;;;;;;;;7.90;99.90;;;;;;5058883;28;20379;-69
2022/05/09 03:30:09;;;;;;;;;;;7.90;99.90;;;;;;5061298;28;19925;-70
2022/05/09 03:32:36;;;;;;;;;;;8.00;99.90;;;;;;5061900;28;19931;-69
2022/05/09 03:35:04;;;;;;;;;;;7.80;99.90;;;;;;5060372;28;19932;-69
2022/05/09 03:37:31;;;;;;;;;;;7.70;99.90;;;;;;5061476;28;19930;-68
2022/05/09 03:39:58;;;;;;;;;;;7.70;99.90;;;;;;5071189;28;20026;-68
2022/05/09 03:42:24;;;;;;;;;;;7.60;99.90;;;;;;5064269;28;20020;-68
2022/05/09 03:44:54;;;;;;;;;;;7.60;99.90;;;;;;5056013;28;20074;-69
2022/05/09 03:47:21;;;;;;;;;;;7.60;99.90;;;;;;5057271;28;19930;-68
2022/05/09 03:49:47;;;;;;;;;;;7.60;99.90;;;;;;5069399;28;20023;-69
2022/05/09 03:52:15;;;;;;;;;;;7.70;99.90;;;;;;5066674;28;19960;-70
2022/05/09 03:54:42;;;;;;;;;;;7.80;99.90;;;;;;5063588;28;20354;-69
2022/05/09 03:57:09;;;;;;;;;;;7.90;99.90;;;;;;5065069;28;19929;-68
2022/05/09 03:59:35;;;;;;;;;;;7.90;99.90;;;;;;5057211;28;20023;-69
2022/05/09 04:02:02;;;;;;;;;;;7.90;99.90;;;;;;5062755;28;19931;-69
2022/05/09 04:04:29;;;;;;;;;;;7.80;99.90;;;;;;5051157;28;20311;-69
2022/05/09 04:06:56;;;;;;;;;;;7.70;99.90;;;;;;5054356;28;20232;-69
2022/05/09 04:09:24;;;;;;;;;;;7.60;99.90;;;;;;5059084;28;20015;-68
2022/05/09 04:11:50;;;;;;;;;;;7.60;99.90;;;;;;5063582;28;19935;-69
2022/05/09 04:16:49;;;;;;;;;;;7.60;99.90;;;;;;5063949;28;20003;-69
2022/05/09 04:17:03;;;;;;;;;;;7.60;99.90;;;;;;5063061;28;19935;-70
2022/05/09 04:19:30;;;;;;;;;;;7.60;99.90;;;;;;5059861;28;20019;-70
2022/05/09 04:21:58;;;;;;;;;;;7.70;99.90;;;;;;5064730;28;19936;-71
2022/05/09 04:24:26;;;;;;;;;;;7.70;99.90;;;;;;5057636;28;19931;-71
2022/05/09 04:26:53;;;;;;;;;;;7.70;99.90;;;;;;5059463;28;19989;-71
2022/05/09 04:29:19;;;;;;;;;;;7.80;99.90;;;;;;5060809;28;20019;-71
2022/05/09 04:31:46;;;;;;;;;;;7.70;99.90;;;;;;5063180;28;19928;-70
2022/05/09 04:34:13;;;;;;;;;;;7.80;99.90;;;;;;5062593;28;20242;-70
2022/05/09 04:36:41;;;;;;;;;;;7.80;99.90;;;;;;5053893;28;19972;-71
2022/05/09 04:39:07;;;;;;;;;;;7.80;99.90;;;;;;5069871;28;20000;-70
2022/05/09 04:41:36;;;;;;;;;;;7.90;99.90;;;;;;5049900;28;20023;-69
2022/05/09 04:44:05;;;;;;;;;;;7.80;99.90;;;;;;5060927;28;19936;-70
2022/05/09 04:46:32;;;;;;;;;;;7.90;99.90;;;;;;5059165;28;19931;-70
2022/05/09 04:48:59;;;;;;;;;;;8.00;99.90;;;;;;5069477;28;19925;-67
2022/05/09 04:51:25;;;;;;;;;;;8.10;99.90;;;;;;5052831;28;19935;-69
2022/05/09 04:53:52;;;;;;;;;;;8.20;99.90;;;;;;5061045;28;19932;-70
2022/05/09 04:56:19;;;;;;;;;;;8.30;99.90;;;;;;5066290;28;19996;-69
2022/05/09 04:58:47;;;;;;;;;;;8.40;99.90;;;;;;5062804;28;19925;-71
2022/05/09 05:01:14;;;;;;;;;;;8.50;99.90;;;;;;5053906;28;19925;-71
2022/05/09 05:03:40;;;;;;;;;;;8.50;99.90;;;;;;5065322;28;20007;-71
2022/05/09 05:06:07;;;;;;;;;;;8.60;99.90;;;;;;5059432;28;20019;-69
2022/05/09 05:08:35;;;;;;;;;;;8.70;99.90;;;;;;5060744;28;20390;-71
2022/05/09 05:11:02;;;;;;;;;;;8.70;99.90;;;;;;5055435;28;19924;-71
2022/05/09 05:13:29;;;;;;;;;;;8.80;99.90;;;;;;5057749;28;19925;-71
2022/05/09 05:15:57;;;;;;;;;;;8.90;99.90;;;;;;5069008;28;20027;-70
2022/05/09 05:18:25;;;;;;;;;;;8.90;99.90;;;;;;5058434;28;19932;-71
2022/05/09 05:20:53;;;;;;;;;;;9.00;99.90;;;;;;5070821;28;19928;-72
2022/05/09 05:23:20;;;;;;;;;;;9.00;99.90;;;;;;5062373;28;19935;-71
2022/05/09 05:25:47;;;;;;;;;;;9.10;99.90;;;;;;5054812;28;19925;-71
2022/05/09 05:28:14;;;;;;;;;;;9.20;99.90;;;;;;5059795;28;19943;-71
2022/05/09 05:30:40;;;;;;;;;;;9.30;99.90;;;;;;5061185;28;19925;-70
2022/05/09 05:33:08;;;;;;;;;;;9.30;99.90;;;;;;5065397;28;19932;-70
2022/05/09 05:35:35;;;;;;;;;;;9.40;99.90;;;;;;5063650;28;19929;-72
2022/05/09 05:38:02;;;;;;;;;;;9.40;99.90;;;;;;5058662;28;19925;-72
2022/05/09 05:40:29;;;;;;;;;;;9.50;99.90;;;;;;5068482;28;19924;-71
2022/05/09 05:42:55;;;;;;;;;;;9.60;99.90;;;;;;5068356;28;20035;-71
2022/05/09 05:45:23;;;;;;;;;;;9.70;99.90;;;;;;5068966;28;19932;-71
2022/05/09 05:47:50;;;;;;;;;;;9.70;99.90;;;;;;5063714;28;19924;-71
2022/05/09 05:50:20;;;;;;;;;;;9.70;99.90;;;;;;5064137;28;19933;-71
2022/05/09 05:52:47;;;;;;;;;;;10.40;99.90;;;;;;5071139;28;19940;-71
2022/05/09 05:55:14;;;;;;;;;;;11.90;99.90;;;;;;5070010;28;20014;-71
2022/05/09 05:57:42;;;;;;;;;;;13.20;97.00;;;;;;5052198;28;20384;-69
2022/05/09 06:00:11;;;;;;;;;;;14.20;91.90;;;;;;5056585;28;19932;-69
2022/05/09 06:02:38;;;;;;;;;;;13.90;90.60;;;;;;5062387;28;19928;-69
2022/05/09 06:05:06;;;;;;;;;;;13.00;91.40;;;;;;5073814;28;19924;-69
2022/05/09 06:07:34;;;;;;;;;;;12.20;94.00;;;;;;5058807;28;19929;-69
2022/05/09 06:10:01;;;;;;;;;;;11.80;95.00;;;;;;5069522;28;20003;-71
2022/05/09 06:12:28;;;;;;;;;;;11.80;95.80;;;;;;5070101;28;20011;-71
2022/05/09 06:17:35;;;;;;;;;;;11.60;95.40;;;;;;5066081;28;19931;-70
2022/05/09 06:20:04;;;;;;;;;;;11.70;95.40;;;;;;5064970;28;19924;-71
2022/05/09 06:22:31;;;;;;;;;;;11.70;94.80;;;;;;5070950;28;19956;-71
2022/05/09 06:25:00;;;;;;;;;;;11.70;94.80;;;;;;5073443;28;19925;-71
2022/05/09 06:27:27;;;;;;;;;;;11.80;94.60;;;;;;5060274;28;19932;-70
2022/05/09 06:29:54;;;;;;;;;;;12.00;94.10;;;;;;5072276;28;19924;-70
2022/05/09 06:32:24;;;;;;;;;;;12.10;93.90;;;;;;5071345;28;20260;-70
2022/05/09 06:34:51;;;;;;;;;;;12.10;93.40;;;;;;5072096;28;19979;-71
2022/05/09 06:37:17;;;;;;;;;;;12.00;93.60;;;;;;5063259;28;19928;-71
2022/05/09 06:39:44;;;;;;;;;;;12.00;93.70;;;;;;5071049;28;19928;-72
2022/05/09 06:42:12;;;;;;;;;;;12.20;93.40;;;;;;5070708;28;19925;-70
2022/05/09 06:44:39;;;;;;;;;;;12.30;93.00;;;;;;5072680;28;20026;-70
2022/05/09 06:47:06;;;;;;;;;;;12.40;92.90;;;;;;5071422;28;19932;-72
2022/05/09 06:49:33;;;;;;;;;;;12.40;92.40;;;;;;5056585;28;19924;-71
2022/05/09 06:52:03;;;;;;;;;;;12.80;91.70;;;;;;5066883;28;19935;-69
2022/05/09 06:54:30;;;;;;;;;;;14.40;87.80;;;;;;5072728;28;20020;-69
2022/05/09 06:56:56;;;;;;;;;;;16.50;77.00;;;;;;5070604;28;20577;-68
2022/05/09 06:59:24;;;;;;;;;;;17.30;65.70;;;;;;5071746;28;19931;-71
2022/05/09 07:01:51;;;;;;;;;;;17.60;61.00;;;;;;5069025;28;19925;-70
2022/05/09 07:04:18;;;;;;;;;;;17.40;59.10;;;;;;5072583;28;19931;-70
2022/05/09 07:06:44;;;;;;;;;;;18.20;55.30;;;;;;5067941;28;19932;-70
2022/05/09 07:09:12;;;;;;;;;;;17.20;55.90;;;;;;5068182;28;20025;-69
2022/05/09 07:11:40;;;;;;;;;;;17.60;54.00;;;;;;5071767;28;19931;-70
2022/05/09 07:14:07;;;;;;;;;;;18.30;52.10;;;;;;5071581;28;20468;-71
2022/05/09 07:16:35;;;;;;;;;;;19.90;48.10;;;;;;5070237;28;19986;-70
2022/05/09 07:19:03;;;;;;;;;;;20.90;41.50;;;;;;5059108;28;19924;-70
2022/05/09 07:21:30;;;;;;;;;;;20.40;38.90;;;;;;5066072;28;20441;-70
2022/05/09 07:23:57;;;;;;;;;;;20.60;38.80;;;;;;5062480;28;19935;-70
2022/05/09 07:26:24;;;;;;;;;;;19.00;41.20;;;;;;5066110;28;20291;-70
2022/05/09 07:28:50;;;;;;;;;;;21.30;39.60;;;;;;5057138;28;19964;-71
2022/05/09 07:31:17;;;;;;;;;;;22.70;31.60;;;;;;5063628;28;19929;-70
2022/05/09 07:33:45;;;;;;;;;;;23.80;29.60;;;;;;5066677;28;19947;-70
2022/05/09 07:36:12;;;;;;;;;;;24.30;25.20;;;;;;5065603;28;20019;-70
2022/05/09 07:38:39;;;;;;;;;;;25.60;22.80;;;;;;5060736;28;19931;-70
2022/05/09 07:41:06;;;;;;;;;;;23.90;24.20;;;;;;5059345;28;20217;-71
2022/05/09 07:43:33;;;;;;;;;;;20.80;27.90;;;;;;5064879;28;20307;-69
2022/05/09 07:45:59;;;;;;;;;;;21.40;27.40;;;;;;5060977;28;20388;-69
2022/05/09 07:48:27;;;;;;;;;;;21.70;27.50;;;;;;5053943;28;19924;-70
2022/05/09 07:50:55;;;;;;;;;;;23.90;23.60;;;;;;5060128;28;20398;-69
2022/05/09 07:53:23;;;;;;;;;;;25.80;21.90;;;;;;5063038;28;20455;-69
2022/05/09 07:55:50;;;;;;;;;;;23.90;22.20;;;;;;5056744;28;20014;-71
2022/05/09 07:58:17;;;;;;;;;;;25.60;20.20;;;;;;5063615;28;19924;-70
2022/05/09 08:00:45;;;;;;;;;;;25.30;17.60;;;;;;5062007;28;19943;-70
2022/05/09 08:03:14;;;;;;;;;;;22.80;21.90;;;;;;5064880;28;20196;-70
2022/05/09 08:05:41;;;;;;;;;;;23.90;21.40;;;;;;5064048;28;19925;-70
2022/05/09 08:08:10;;;;;;;;;;;22.70;20.60;;;;;;5062606;28;19925;-69
2022/05/09 08:10:36;;;;;;;;;;;25.60;19.00;;;;;;5063205;28;20081;-70
2022/05/09 08:13:03;;;;;;;;;;;26.60;15.90;;;;;;5063221;28;19932;-70
2022/05/09 08:15:31;;;;;;;;;;;25.60;16.90;;;;;;5067129;28;19931;-70
2022/05/09 08:17:58;;;;;;;;;;;25.90;15.90;;;;;;5054991;28;20027;-70
2022/05/09 08:20:24;;;;;;;;;;;23.60;18.00;;;;;;5069932;28;19932;-70
2022/05/09 08:22:59;;;;;;;;;;;23.00;18.60;;;;;;5057214;28;20367;-70
2022/05/09 08:25:27;;;;;;;;;;;22.20;20.30;;;;;;5066498;28;20019;-70
2022/05/09 08:27:54;;;;;;;;;;;23.60;18.50;;;;;;5057981;28;19932;-71
2022/05/09 08:30:21;;;;;;;;;;;24.50;16.70;;;;;;5057173;28;20376;-71
2022/05/09 08:32:47;;;;;;;;;;;26.90;14.80;;;;;;5058709;28;20345;-70
2022/05/09 08:35:14;;;;;;;;;;;26.30;15.10;;;;;;5058385;28;19925;-71
2022/05/09 08:37:43;;;;;;;;;;;28.30;12.50;;;;;;5065558;28;19925;-70
2022/05/09 08:40:10;;;;;;;;;;;28.50;11.20;;;;;;5063174;28;19924;-70
2022/05/09 08:42:42;;;;;;;;;;;28.80;9.30;;;;;;5069492;28;19925;-71
2022/05/09 08:45:12;;;;;;;;;;;25.80;12.90;;;;;;5074683;28;20069;-72
2022/05/09 08:47:59;;;;;;;;;;;25.80;12.80;;;;;;5066439;28;19935;-71
2022/05/09 08:50:30;;;;;;;;;;;24.40;12.90;;;;;;5063561;28;19925;-71
2022/05/09 08:52:59;;;;;;;;;;;23.90;15.20;;;;;;5070946;28;19929;-71
2022/05/09 08:55:27;;;;;;;;;;;24.90;14.00;;;;;;5059693;28;20015;-71
2022/05/09 08:58:00;;;;;;;;;;;27.20;10.10;;;;;;5066541;28;19928;-72
2022/05/09 09:00:29;;;;;;;;;;;26.70;9.70;;;;;;5062382;28;19924;-72
2022/05/09 09:02:57;;;;;;;;;;;24.60;11.40;;;;;;5070389;28;19932;-71
2022/05/09 09:05:26;;;;;;;;;;;24.10;10.70;;;;;;5055900;28;20285;-71
2022/05/09 09:08:00;;;;;;;;;;;22.70;13.30;;;;;;5062972;28;19957;-70
2022/05/09 09:10:31;;;;;;;;;;;22.30;13.30;;;;;;5060998;28;20361;-71
2022/05/09 09:13:04;;;;;;;;;;;22.20;14.10;;;;;;5063183;28;20348;-71
2022/05/09 09:15:36;;;;;;;;;;;21.90;14.00;;;;;;5063804;28;19931;-70
2022/05/09 09:18:06;;;;;;;;;;;22.60;14.60;;;;;;5068017;28;19935;-71
2022/05/09 09:20:37;;;;;;;;;;;21.70;14.10;;;;;;5054218;28;19924;-72
2022/05/09 09:23:14;;;;;;;;;;;22.50;13.40;;;;;;5066425;28;19951;-71
2022/05/09 09:25:43;;;;;;;;;;;23.40;12.60;;;;;;5058239;28;20028;-72
2022/05/09 09:28:13;;;;;;;;;;;23.10;12.90;;;;;;5057357;28;20375;-71
2022/05/09 09:30:40;;;;;;;;;;;21.90;12.40;;;;;;5046780;28;20625;-72
2022/05/09 09:33:10;;;;;;;;;;;21.80;12.90;;;;;;5064401;28;19928;-70
2022/05/09 09:35:41;;;;;;;;;;;21.90;13.40;;;;;;5061084;28;19932;-70
2022/05/09 09:38:12;;;;;;;;;;;21.30;14.20;;;;;;5055647;28;20018;-70
2022/05/09 09:40:39;;;;;;;;;;;22.50;13.30;;;;;;5055366;28;20460;-70
2022/05/09 09:43:06;;;;;;;;;;;21.60;13.70;;;;;;5058298;28;19933;-70
2022/05/09 09:45:36;;;;;;;;;;;21.50;13.80;;;;;;5062586;28;20402;-70
2022/05/09 09:48:06;;;;;;;;;;;22.00;13.00;;;;;;5056434;28;19951;-70
2022/05/09 09:50:34;;;;;;;;;;;22.60;12.60;;;;;;5065409;28;20059;-71
2022/05/09 09:53:02;;;;;;;;;;;21.50;12.20;;;;;;5057010;28;19924;-71
2022/05/09 09:55:30;;;;;;;;;;;21.50;12.90;;;;;;5056925;28;19929;-71
2022/05/09 09:57:57;;;;;;;;;;;22.20;11.90;;;;;;5064098;28;20445;-71
2022/05/09 10:00:26;;;;;;;;;;;24.30;10.30;;;;;;5069227;28;19968;-72
2022/05/09 10:02:55;;;;;;;;;;;23.70;11.40;;;;;;5067988;28;19925;-71
2022/05/09 10:05:31;;;;;;;;;;;21.90;13.00;;;;;;5061563;28;20514;-71
2022/05/09 10:07:57;;;;;;;;;;;21.20;13.70;;;;;;5055028;28;19924;-71
2022/05/09 10:10:25;;;;;;;;;;;21.70;13.10;;;;;;5064594;28;20024;-71
2022/05/09 10:12:53;;;;;;;;;;;21.30;12.90;;;;;;5068090;28;19924;-70
2022/05/09 10:15:30;;;;;;;;;;;20.90;14.20;;;;;;5058865;28;19932;-71
2022/05/09 10:17:59;;;;;;;;;;;20.70;13.70;;;;;;5062090;28;20277;-69
2022/05/09 10:20:28;;;;;;;;;;;20.50;14.20;;;;;;5058928;28;19972;-71
2022/05/09 10:25:56;;;;;;;;;;;20.60;13.60;;;;;;5034312;28;20384;-69
2022/05/09 10:28:23;;;;;;;;;;;20.40;14.60;;;;;;5065882;28;19924;-71
2022/05/09 10:30:52;;;;;;;;;;;20.30;14.20;;;;;;5057700;28;20366;-71
2022/05/09 10:33:24;;;;;;;;;;;20.60;15.10;;;;;;5066486;28;19924;-74
2022/05/09 10:35:53;;;;;;;;;;;21.30;13.50;;;;;;5067596;28;19932;-76
2022/05/09 10:38:22;;;;;;;;;;;21.60;13.40;;;;;;5065984;28;20286;-75
2022/05/09 10:40:49;;;;;;;;;;;21.20;13.90;;;;;;5057449;28;19925;-74
2022/05/09 10:43:20;;;;;;;;;;;20.90;15.60;;;;;;5066078;28;19924;-75
2022/05/09 10:45:49;;;;;;;;;;;20.70;14.40;;;;;;5058068;28;20389;-76
2022/05/09 10:48:19;;;;;;;;;;;20.90;14.30;;;;;;5067940;28;20375;-76
2022/05/09 10:50:50;;;;;;;;;;;20.90;14.60;;;;;;5059695;28;19933;-74
2022/05/09 10:53:20;;;;;;;;;;;21.20;14.50;;;;;;5052093;28;19928;-75
2022/05/09 10:55:52;;;;;;;;;;;21.60;13.70;;;;;;5057980;28;20576;-74
2022/05/09 10:58:22;;;;;;;;;;;21.80;13.70;;;;;;5061933;28;20019;-73
2022/05/09 11:00:52;;;;;;;;;;;22.00;13.70;;;;;;5059250;28;19983;-73
2022/05/09 11:03:23;;;;;;;;;;;22.30;13.30;;;;;;5065448;28;19968;-73
2022/05/09 11:06:08;;;;;;;;;;;22.60;13.50;;;;;;5067622;28;19932;-73
2022/05/09 11:08:42;;;;;;;;;;;22.30;14.00;;;;;;5067093;28;19997;-73
2022/05/09 11:11:15;;;;;;;;;;;22.10;13.70;;;;;;5067031;28;20298;-74
2022/05/09 11:13:49;;;;;;;;;;;22.10;14.10;;;;;;5064318;28;19931;-74
2022/05/09 11:16:17;;;;;;;;;;;22.30;14.20;;;;;;5069486;28;19925;-73
2022/05/09 11:19:03;;;;;;;;;;;22.50;13.80;;;;;;5064128;28;19964;-74
2022/05/09 11:21:36;;;;;;;;;;;22.10;14.00;;;;;;5057089;28;19964;-72
2022/05/09 11:24:08;;;;;;;;;;;22.30;14.30;;;;;;5065014;28;20022;-74
2022/05/09 11:26:40;;;;;;;;;;;22.50;13.90;;;;;;5056436;28;19925;-73
2022/05/09 11:29:21;;;;;;;;;;;22.70;13.90;;;;;;5063370;28;19935;-73
2022/05/09 11:31:55;;;;;;;;;;;23.20;13.40;;;;;;5059789;28;19924;-74
2022/05/09 11:34:28;;;;;;;;;;;23.00;13.20;;;;;;5064084;28;19924;-73
2022/05/09 11:37:02;;;;;;;;;;;22.80;13.40;;;;;;5063403;28;19925;-75
2022/05/09 11:39:36;;;;;;;;;;;22.80;13.60;;;;;;5062553;28;19931;-74
2022/05/09 11:43:27;;;;;;;;;;;22.70;13.70;;;;;;5053005;28;19940;-74
2022/05/09 11:44:59;;;;;;;;;;;22.80;13.80;;;;;;5051763;28;19925;-74
2022/05/09 11:47:34;;;;;;;;;;;22.90;14.10;;;;;;5056866;28;19924;-73
2022/05/09 11:50:16;;;;;;;;;;;22.90;14.90;;;;;;5077496;28;20026;-73
2022/05/09 11:52:43;;;;;;;;;;;23.30;14.60;;;;;;5061334;28;19924;-74
2022/05/09 11:55:14;;;;;;;;;;;23.60;14.60;;;;;;5061256;28;19963;-73
2022/05/09 11:57:42;;;;;;;;;;;23.60;14.30;;;;;;5059680;28;20019;-74
2022/05/09 12:00:11;;;;;;;;;;;23.50;14.90;;;;;;5061677;28;20027;-73
2022/05/09 12:02:45;;;;;;;;;;;23.70;15.00;;;;;;5057341;28;19925;-73
2022/05/09 12:05:31;;;;;;;;;;;23.90;14.70;;;;;;5054280;28;19936;-74
2022/05/09 12:08:03;;;;;;;;;;;24.00;14.20;;;;;;5064390;28;19932;-73
2022/05/09 12:10:32;;;;;;;;;;;23.80;14.10;;;;;;5064513;28;19956;-74
2022/05/09 12:13:00;;;;;;;;;;;23.70;14.40;;;;;;5062338;28;19924;-74
2022/05/09 12:15:45;;;;;;;;;;;24.00;14.30;;;;;;5070810;28;19935;-74
2022/05/09 12:18:20;;;;;;;;;;;24.10;14.10;;;;;;5052719;28;19962;-74
2022/05/09 12:21:16;;;;;;;;;;;24.30;14.30;;;;;;5063530;28;20018;-74
2022/05/09 12:24:08;;;;;;;;;;;24.50;14.20;;;;;;5063069;28;19928;-73
2022/05/09 12:26:37;;;;;;;;;;;24.30;14.20;;;;;;5051153;28;19964;-75
2022/05/09 12:29:24;;;;;;;;;;;24.20;14.10;;;;;;5063168;28;19931;-76
2022/05/09 12:31:52;;;;;;;;;;;24.20;13.80;;;;;;5052883;28;20330;-75
2022/05/09 12:34:19;;;;;;;;;;;24.00;14.40;;;;;;5063050;28;20405;-74
2022/05/09 12:36:47;;;;;;;;;;;23.80;14.50;;;;;;5063604;28;20020;-74
2022/05/09 12:39:15;;;;;;;;;;;23.90;14.80;;;;;;5063477;28;19929;-75
2022/05/09 12:41:45;;;;;;;;;;;24.00;14.80;;;;;;5063268;28;20449;-75
2022/05/09 12:44:14;;;;;;;;;;;24.10;14.50;;;;;;5054075;28;20330;-75
2022/05/09 12:46:45;;;;;;;;;;;24.10;14.30;;;;;;5051698;28;20508;-74
2022/05/09 12:49:12;;;;;;;;;;;24.10;14.50;;;;;;5065967;28;20496;-74
2022/05/09 12:51:42;;;;;;;;;;;24.30;14.60;;;;;;5066669;28;20388;-76
2022/05/09 12:54:09;;;;;;;;;;;24.80;14.00;;;;;;5064027;28;19931;-73
2022/05/09 12:56:37;;;;;;;;;;;24.70;13.40;;;;;;5068616;28;19963;-73
2022/05/09 12:59:06;;;;;;;;;;;24.50;13.90;;;;;;5068258;28;19924;-76
2022/05/09 13:01:34;;;;;;;;;;;24.60;13.80;;;;;;5050413;28;19924;-75
2022/05/09 13:04:01;;;;;;;;;;;24.50;13.80;;;;;;5058255;28;20434;-76
2022/05/09 13:06:29;;;;;;;;;;;24.50;13.80;;;;;;5069222;28;19931;-72
2022/05/09 13:08:57;;;;;;;;;;;24.70;13.60;;;;;;5068389;28;19931;-77
2022/05/09 13:11:25;;;;;;;;;;;24.80;14.40;;;;;;5056102;28;20011;-75
2022/05/09 13:13:57;;;;;;;;;;;24.90;14.10;;;;;;5063457;28;20475;-74
2022/05/09 13:16:29;;;;;;;;;;;24.80;14.10;;;;;;5069691;28;19978;-75
2022/05/09 13:18:56;;;;;;;;;;;24.60;13.90;;;;;;5060344;28;19925;-74
2022/05/09 13:21:25;;;;;;;;;;;24.80;13.60;;;;;;5069763;28;19924;-75
2022/05/09 13:23:52;;;;;;;;;;;24.90;13.70;;;;;;5061495;28;20012;-75
2022/05/09 13:26:22;;;;;;;;;;;25.00;13.70;;;;;;5067133;28;19962;-76
2022/05/09 13:28:50;;;;;;;;;;;25.10;13.40;;;;;;5062561;28;19951;-75
2022/05/09 13:31:34;;;;;;;;;;;25.00;13.30;;;;;;5071651;28;19924;-77
2022/05/09 13:34:01;;;;;;;;;;;24.90;13.40;;;;;;5066697;28;19925;-76
2022/05/09 13:36:34;;;;;;;;;;;25.00;13.90;;;;;;5063891;28;20420;-74
2022/05/09 13:39:01;;;;;;;;;;;24.90;14.10;;;;;;5067215;28;19938;-74
2022/05/09 13:41:28;;;;;;;;;;;25.10;14.40;;;;;;5062833;28;20011;-74
2022/05/09 13:43:56;;;;;;;;;;;25.30;14.20;;;;;;5062380;28;19924;-74
2022/05/09 13:46:24;;;;;;;;;;;25.30;13.80;;;;;;5070034;28;19924;-75
2022/05/09 13:48:54;;;;;;;;;;;25.10;13.50;;;;;;5068125;28;20015;-74
2022/05/09 13:51:27;;;;;;;;;;;25.30;14.20;;;;;;5054023;28;20020;-74
2022/05/09 13:53:56;;;;;;;;;;;25.40;14.40;;;;;;5061165;28;19932;-74
2022/05/09 13:56:24;;;;;;;;;;;25.40;13.50;;;;;;5061256;28;19932;-73
2022/05/09 13:58:53;;;;;;;;;;;25.50;13.60;;;;;;5059049;28;20386;-74
2022/05/09 14:01:21;;;;;;;;;;;25.80;13.60;;;;;;5061117;28;19924;-73
2022/05/09 14:03:49;;;;;;;;;;;26.10;13.30;;;;;;5061022;28;19936;-72
2022/05/09 14:06:18;;;;;;;;;;;26.00;14.00;;;;;;5064090;28;19928;-72
2022/05/09 14:08:47;;;;;;;;;;;25.90;13.60;;;;;;5054691;28;19931;-72
2022/05/09 14:11:14;;;;;;;;;;;25.80;13.70;;;;;;5052740;28;20465;-72
2022/05/09 14:13:45;;;;;;;;;;;25.70;13.70;;;;;;5063137;28;20406;-72
2022/05/09 14:16:16;;;;;;;;;;;25.50;13.70;;;;;;5068549;28;19967;-74
2022/05/09 14:18:44;;;;;;;;;;;25.50;13.30;;;;;;5058700;28;19936;-74
2022/05/09 14:21:14;;;;;;;;;;;25.50;14.30;;;;;;5055413;28;20015;-74
2022/05/09 14:23:47;;;;;;;;;;;25.80;14.50;;;;;;5068432;28;20364;-73
2022/05/09 14:31:54;;;;;;;;;;;25.90;13.90;;;;;;5061975;28;20296;-72
2022/05/09 14:34:32;;;;;;;;;;;25.70;14.70;;;;;;5060235;28;19960;-73
2022/05/09 14:37:09;;;;;;;;;;;25.90;14.60;;;;;;5067915;28;20481;-73
2022/05/09 14:39:41;;;;;;;;;;;25.80;14.80;;;;;;5065922;28;20038;-72
2022/05/09 14:42:12;;;;;;;;;;;25.70;14.80;;;;;;5065515;28;19925;-73
2022/05/09 14:44:40;;;;;;;;;;;26.00;14.40;;;;;;5066859;28;20443;-73